sensor_id;sensor_type;location;lat;lon;timestamp;P1;durP1;ratioP1;P2;durP2;ratioP2
6785;SDS011;3430;51.192;6.048;2022-12-07T00:01:58;6.03;;;5.47;;
6785;SDS011;3430;51.192;6.048;2022-12-07T00:04:23;8.40;;;5.60;;
6785;SDS011;3430;51.192;6.048;2022-12-07T00:06:50;7.10;;;5.57;;
6785;SDS011;3430;51.192;6.048;2022-12-07T00:09:16;5.87;;;5.07;;
6785;SDS011;3430;51.192;6.048;2022-12-07T00:11:42;6.53;;;5.27;;
6785;SDS011;3430;51.192;6.048;2022-12-07T00:14:10;6.83;;;5.60;;
6785;SDS011;3430;51.192;6.048;2022-12-07T00:16:36;7.67;;;5.67;;
6785;SDS011;3430;51.192;6.048;2022-12-07T00:19:01;6.00;;;5.20;;
6785;SDS011;3430;51.192;6.048;2022-12-07T00:21:28;8.97;;;5.47;;
6785;SDS011;3430;51.192;6.048;2022-12-07T00:23:54;6.63;;;5.67;;
6785;SDS011;3430;51.192;6.048;2022-12-07T00:26:23;7.87;;;5.63;;
6785;SDS011;3430;51.192;6.048;2022-12-07T00:28:53;6.33;;;5.73;;
6785;SDS011;3430;51.192;6.048;2022-12-07T00:31:19;7.43;;;5.73;;
6785;SDS011;3430;51.192;6.048;2022-12-07T00:33:45;6.83;;;6.13;;
6785;SDS011;3430;51.192;6.048;2022-12-07T00:36:12;6.43;;;5.70;;
6785;SDS011;3430;51.192;6.048;2022-12-07T00:38:38;7.47;;;5.87;;
6785;SDS011;3430;51.192;6.048;2022-12-07T00:41:07;6.83;;;4.93;;
6785;SDS011;3430;51.192;6.048;2022-12-07T00:43:33;7.77;;;6.10;;
6785;SDS011;3430;51.192;6.048;2022-12-07T00:45:58;7.07;;;5.67;;
6785;SDS011;3430;51.192;6.048;2022-12-07T00:48:26;7.13;;;5.87;;
6785;SDS011;3430;51.192;6.048;2022-12-07T00:50:52;8.00;;;5.40;;
6785;SDS011;3430;51.192;6.048;2022-12-07T00:53:17;10.37;;;5.93;;
6785;SDS011;3430;51.192;6.048;2022-12-07T00:55:43;13.97;;;6.30;;
6785;SDS011;3430;51.192;6.048;2022-12-07T00:58:08;6.33;;;5.43;;
6785;SDS011;3430;51.192;6.048;2022-12-07T01:00:38;8.17;;;6.20;;
6785;SDS011;3430;51.192;6.048;2022-12-07T01:03:04;7.60;;;5.33;;
6785;SDS011;3430;51.192;6.048;2022-12-07T01:05:29;8.07;;;5.30;;
6785;SDS011;3430;51.192;6.048;2022-12-07T01:07:54;8.90;;;6.00;;
6785;SDS011;3430;51.192;6.048;2022-12-07T01:10:20;9.10;;;5.83;;
6785;SDS011;3430;51.192;6.048;2022-12-07T01:12:45;8.57;;;6.03;;
6785;SDS011;3430;51.192;6.048;2022-12-07T01:15:10;9.07;;;5.80;;
6785;SDS011;3430;51.192;6.048;2022-12-07T01:17:36;11.27;;;6.00;;
6785;SDS011;3430;51.192;6.048;2022-12-07T01:20:01;8.23;;;5.77;;
6785;SDS011;3430;51.192;6.048;2022-12-07T01:22:26;7.20;;;5.63;;
6785;SDS011;3430;51.192;6.048;2022-12-07T01:24:51;6.20;;;5.60;;
6785;SDS011;3430;51.192;6.048;2022-12-07T01:27:17;9.13;;;6.73;;
6785;SDS011;3430;51.192;6.048;2022-12-07T01:29:42;6.57;;;5.87;;
6785;SDS011;3430;51.192;6.048;2022-12-07T01:32:08;6.90;;;5.70;;
6785;SDS011;3430;51.192;6.048;2022-12-07T01:34:33;6.23;;;5.63;;
6785;SDS011;3430;51.192;6.048;2022-12-07T01:36:58;7.07;;;5.40;;
6785;SDS011;3430;51.192;6.048;2022-12-07T01:39:24;6.43;;;5.70;;
6785;SDS011;3430;51.192;6.048;2022-12-07T01:41:49;6.70;;;5.73;;
6785;SDS011;3430;51.192;6.048;2022-12-07T01:46:53;6.60;;;5.43;;
6785;SDS011;3430;51.192;6.048;2022-12-07T01:49:22;5.80;;;5.20;;
6785;SDS011;3430;51.192;6.048;2022-12-07T01:51:48;6.47;;;5.20;;
6785;SDS011;3430;51.192;6.048;2022-12-07T01:54:14;6.43;;;5.63;;
6785;SDS011;3430;51.192;6.048;2022-12-07T01:56:42;9.13;;;5.10;;
6785;SDS011;3430;51.192;6.048;2022-12-07T01:59:08;7.80;;;6.00;;
6785;SDS011;3430;51.192;6.048;2022-12-07T02:01:33;7.50;;;6.43;;
6785;SDS011;3430;51.192;6.048;2022-12-07T02:03:59;7.20;;;5.70;;
6785;SDS011;3430;51.192;6.048;2022-12-07T02:06:24;8.90;;;5.27;;
6785;SDS011;3430;51.192;6.048;2022-12-07T02:08:50;9.53;;;5.80;;
6785;SDS011;3430;51.192;6.048;2022-12-07T02:11:15;5.60;;;5.03;;
6785;SDS011;3430;51.192;6.048;2022-12-07T02:13:41;6.10;;;5.50;;
6785;SDS011;3430;51.192;6.048;2022-12-07T02:21:41;7.23;;;5.10;;
6785;SDS011;3430;51.192;6.048;2022-12-07T02:37:02;6.83;;;6.23;;
6785;SDS011;3430;51.192;6.048;2022-12-07T02:41:55;8.23;;;6.63;;
6785;SDS011;3430;51.192;6.048;2022-12-07T02:44:24;7.20;;;5.93;;
6785;SDS011;3430;51.192;6.048;2022-12-07T02:46:52;7.43;;;5.77;;
6785;SDS011;3430;51.192;6.048;2022-12-07T02:49:18;5.83;;;5.33;;
6785;SDS011;3430;51.192;6.048;2022-12-07T02:51:45;6.30;;;5.70;;
6785;SDS011;3430;51.192;6.048;2022-12-07T02:54:14;7.57;;;6.87;;
6785;SDS011;3430;51.192;6.048;2022-12-07T02:56:50;9.93;;;6.80;;
6785;SDS011;3430;51.192;6.048;2022-12-07T03:07:51;6.40;;;5.70;;
6785;SDS011;3430;51.192;6.048;2022-12-07T03:10:23;10.13;;;5.93;;
6785;SDS011;3430;51.192;6.048;2022-12-07T03:15:21;7.07;;;6.20;;
6785;SDS011;3430;51.192;6.048;2022-12-07T03:17:48;7.63;;;6.33;;
6785;SDS011;3430;51.192;6.048;2022-12-07T03:20:15;6.70;;;5.93;;
6785;SDS011;3430;51.192;6.048;2022-12-07T03:22:42;7.07;;;6.37;;
6785;SDS011;3430;51.192;6.048;2022-12-07T03:25:10;7.17;;;5.97;;
6785;SDS011;3430;51.192;6.048;2022-12-07T03:27:41;8.73;;;6.10;;
6785;SDS011;3430;51.192;6.048;2022-12-07T03:30:18;7.90;;;6.33;;
6785;SDS011;3430;51.192;6.048;2022-12-07T03:32:48;6.50;;;5.90;;
6785;SDS011;3430;51.192;6.048;2022-12-07T03:35:39;6.97;;;6.03;;
6785;SDS011;3430;51.192;6.048;2022-12-07T03:38:13;6.10;;;5.47;;
6785;SDS011;3430;51.192;6.048;2022-12-07T03:40:43;7.90;;;6.67;;
6785;SDS011;3430;51.192;6.048;2022-12-07T03:43:10;8.03;;;6.60;;
6785;SDS011;3430;51.192;6.048;2022-12-07T03:45:42;8.20;;;6.10;;
6785;SDS011;3430;51.192;6.048;2022-12-07T03:48:22;6.47;;;5.57;;
6785;SDS011;3430;51.192;6.048;2022-12-07T03:53:15;8.20;;;6.17;;
6785;SDS011;3430;51.192;6.048;2022-12-07T03:55:44;7.80;;;6.40;;
6785;SDS011;3430;51.192;6.048;2022-12-07T03:58:14;8.77;;;6.70;;
6785;SDS011;3430;51.192;6.048;2022-12-07T04:00:41;10.00;;;6.20;;
6785;SDS011;3430;51.192;6.048;2022-12-07T04:03:06;6.93;;;5.70;;
6785;SDS011;3430;51.192;6.048;2022-12-07T04:05:32;6.30;;;5.70;;
6785;SDS011;3430;51.192;6.048;2022-12-07T04:07:57;6.27;;;5.67;;
6785;SDS011;3430;51.192;6.048;2022-12-07T04:10:23;7.93;;;6.20;;
6785;SDS011;3430;51.192;6.048;2022-12-07T04:12:48;8.97;;;6.10;;
6785;SDS011;3430;51.192;6.048;2022-12-07T04:15:13;6.80;;;5.77;;
6785;SDS011;3430;51.192;6.048;2022-12-07T04:17:39;7.63;;;5.97;;
6785;SDS011;3430;51.192;6.048;2022-12-07T04:20:05;6.00;;;5.37;;
6785;SDS011;3430;51.192;6.048;2022-12-07T04:22:30;5.80;;;5.30;;
6785;SDS011;3430;51.192;6.048;2022-12-07T04:24:55;6.30;;;5.67;;
6785;SDS011;3430;51.192;6.048;2022-12-07T04:27:21;6.30;;;5.70;;
6785;SDS011;3430;51.192;6.048;2022-12-07T04:29:46;7.23;;;6.30;;
6785;SDS011;3430;51.192;6.048;2022-12-07T04:32:11;6.70;;;6.10;;
6785;SDS011;3430;51.192;6.048;2022-12-07T04:34:36;6.50;;;5.70;;
6785;SDS011;3430;51.192;6.048;2022-12-07T04:37:02;6.63;;;6.00;;
6785;SDS011;3430;51.192;6.048;2022-12-07T04:39:28;8.67;;;5.97;;
6785;SDS011;3430;51.192;6.048;2022-12-07T04:41:54;6.10;;;5.43;;
6785;SDS011;3430;51.192;6.048;2022-12-07T04:44:19;6.60;;;5.87;;
6785;SDS011;3430;51.192;6.048;2022-12-07T04:46:45;8.77;;;5.70;;
6785;SDS011;3430;51.192;6.048;2022-12-07T04:49:11;8.83;;;5.53;;
6785;SDS011;3430;51.192;6.048;2022-12-07T04:51:37;8.63;;;6.03;;
6785;SDS011;3430;51.192;6.048;2022-12-07T04:54:02;6.40;;;5.43;;
6785;SDS011;3430;51.192;6.048;2022-12-07T04:56:28;6.80;;;5.57;;
6785;SDS011;3430;51.192;6.048;2022-12-07T04:58:53;8.03;;;5.30;;
6785;SDS011;3430;51.192;6.048;2022-12-07T05:01:19;6.47;;;5.87;;
6785;SDS011;3430;51.192;6.048;2022-12-07T05:03:44;7.07;;;5.70;;
6785;SDS011;3430;51.192;6.048;2022-12-07T05:06:10;5.67;;;4.97;;
6785;SDS011;3430;51.192;6.048;2022-12-07T05:08:35;6.53;;;5.30;;
6785;SDS011;3430;51.192;6.048;2022-12-07T05:11:01;6.00;;;5.37;;
6785;SDS011;3430;51.192;6.048;2022-12-07T05:13:27;6.90;;;5.30;;
6785;SDS011;3430;51.192;6.048;2022-12-07T05:15:52;6.53;;;5.60;;
6785;SDS011;3430;51.192;6.048;2022-12-07T05:18:18;9.17;;;5.70;;
6785;SDS011;3430;51.192;6.048;2022-12-07T05:20:43;5.53;;;4.90;;
6785;SDS011;3430;51.192;6.048;2022-12-07T05:23:09;5.57;;;5.07;;
6785;SDS011;3430;51.192;6.048;2022-12-07T05:25:34;6.40;;;5.80;;
6785;SDS011;3430;51.192;6.048;2022-12-07T05:28:00;6.10;;;4.67;;
6785;SDS011;3430;51.192;6.048;2022-12-07T05:30:25;5.20;;;4.13;;
6785;SDS011;3430;51.192;6.048;2022-12-07T05:32:51;5.03;;;4.53;;
6785;SDS011;3430;51.192;6.048;2022-12-07T05:35:16;5.13;;;4.20;;
6785;SDS011;3430;51.192;6.048;2022-12-07T05:37:42;4.63;;;3.90;;
6785;SDS011;3430;51.192;6.048;2022-12-07T05:40:08;3.93;;;3.63;;
6785;SDS011;3430;51.192;6.048;2022-12-07T05:42:33;4.33;;;3.50;;
6785;SDS011;3430;51.192;6.048;2022-12-07T05:44:58;4.20;;;3.57;;
6785;SDS011;3430;51.192;6.048;2022-12-07T05:47:23;3.60;;;3.27;;
6785;SDS011;3430;51.192;6.048;2022-12-07T05:49:49;3.90;;;3.47;;
6785;SDS011;3430;51.192;6.048;2022-12-07T05:52:14;5.67;;;3.50;;
6785;SDS011;3430;51.192;6.048;2022-12-07T05:54:40;3.53;;;3.23;;
6785;SDS011;3430;51.192;6.048;2022-12-07T05:57:05;4.03;;;3.13;;
6785;SDS011;3430;51.192;6.048;2022-12-07T05:59:30;3.40;;;3.10;;
6785;SDS011;3430;51.192;6.048;2022-12-07T06:01:57;3.40;;;3.07;;
6785;SDS011;3430;51.192;6.048;2022-12-07T06:04:23;4.37;;;2.87;;
6785;SDS011;3430;51.192;6.048;2022-12-07T06:06:48;5.23;;;2.80;;
6785;SDS011;3430;51.192;6.048;2022-12-07T06:09:14;2.97;;;2.67;;
6785;SDS011;3430;51.192;6.048;2022-12-07T06:11:39;4.23;;;3.20;;
6785;SDS011;3430;51.192;6.048;2022-12-07T06:14:23;4.23;;;2.80;;
6785;SDS011;3430;51.192;6.048;2022-12-07T06:16:49;3.77;;;2.83;;
6785;SDS011;3430;51.192;6.048;2022-12-07T06:19:14;3.80;;;3.00;;
6785;SDS011;3430;51.192;6.048;2022-12-07T06:21:39;3.47;;;3.17;;
6785;SDS011;3430;51.192;6.048;2022-12-07T06:24:05;3.87;;;2.77;;
6785;SDS011;3430;51.192;6.048;2022-12-07T06:26:30;4.67;;;3.00;;
6785;SDS011;3430;51.192;6.048;2022-12-07T06:28:56;2.93;;;2.70;;
6785;SDS011;3430;51.192;6.048;2022-12-07T06:31:21;4.23;;;3.10;;
6785;SDS011;3430;51.192;6.048;2022-12-07T06:33:47;3.63;;;3.03;;
6785;SDS011;3430;51.192;6.048;2022-12-07T06:36:12;3.73;;;2.83;;
6785;SDS011;3430;51.192;6.048;2022-12-07T06:38:38;3.50;;;2.83;;
6785;SDS011;3430;51.192;6.048;2022-12-07T06:41:03;3.67;;;3.00;;
6785;SDS011;3430;51.192;6.048;2022-12-07T06:43:29;3.67;;;3.07;;
6785;SDS011;3430;51.192;6.048;2022-12-07T06:45:54;4.70;;;2.80;;
6785;SDS011;3430;51.192;6.048;2022-12-07T06:48:20;3.37;;;2.70;;
6785;SDS011;3430;51.192;6.048;2022-12-07T06:50:46;3.20;;;2.80;;
6785;SDS011;3430;51.192;6.048;2022-12-07T06:53:12;3.67;;;2.63;;
6785;SDS011;3430;51.192;6.048;2022-12-07T06:55:38;4.47;;;3.03;;
6785;SDS011;3430;51.192;6.048;2022-12-07T06:58:03;5.77;;;3.07;;
6785;SDS011;3430;51.192;6.048;2022-12-07T07:00:29;4.77;;;2.93;;
6785;SDS011;3430;51.192;6.048;2022-12-07T07:02:54;4.93;;;3.37;;
6785;SDS011;3430;51.192;6.048;2022-12-07T07:05:19;3.17;;;2.87;;
6785;SDS011;3430;51.192;6.048;2022-12-07T07:07:50;2.73;;;2.53;;
6785;SDS011;3430;51.192;6.048;2022-12-07T07:10:16;3.17;;;2.87;;
6785;SDS011;3430;51.192;6.048;2022-12-07T07:12:41;3.40;;;3.10;;
6785;SDS011;3430;51.192;6.048;2022-12-07T07:15:08;6.43;;;3.33;;
6785;SDS011;3430;51.192;6.048;2022-12-07T07:17:34;4.33;;;3.23;;
6785;SDS011;3430;51.192;6.048;2022-12-07T07:19:59;3.87;;;3.33;;
6785;SDS011;3430;51.192;6.048;2022-12-07T07:22:25;5.43;;;3.30;;
6785;SDS011;3430;51.192;6.048;2022-12-07T07:24:50;4.00;;;2.97;;
6785;SDS011;3430;51.192;6.048;2022-12-07T07:27:15;3.50;;;3.20;;
6785;SDS011;3430;51.192;6.048;2022-12-07T07:29:42;4.90;;;3.63;;
6785;SDS011;3430;51.192;6.048;2022-12-07T07:32:07;4.23;;;3.47;;
6785;SDS011;3430;51.192;6.048;2022-12-07T07:34:33;3.40;;;3.17;;
6785;SDS011;3430;51.192;6.048;2022-12-07T07:36:58;5.80;;;3.83;;
6785;SDS011;3430;51.192;6.048;2022-12-07T07:39:23;3.90;;;3.53;;
6785;SDS011;3430;51.192;6.048;2022-12-07T07:41:49;7.80;;;3.60;;
6785;SDS011;3430;51.192;6.048;2022-12-07T07:44:14;4.07;;;3.77;;
6785;SDS011;3430;51.192;6.048;2022-12-07T07:46:39;4.40;;;3.37;;
6785;SDS011;3430;51.192;6.048;2022-12-07T07:49:05;7.13;;;4.10;;
6785;SDS011;3430;51.192;6.048;2022-12-07T07:51:30;4.67;;;3.50;;
6785;SDS011;3430;51.192;6.048;2022-12-07T07:53:55;4.40;;;3.90;;
6785;SDS011;3430;51.192;6.048;2022-12-07T07:56:21;5.33;;;4.13;;
6785;SDS011;3430;51.192;6.048;2022-12-07T07:58:46;6.10;;;4.33;;
6785;SDS011;3430;51.192;6.048;2022-12-07T08:01:11;6.17;;;4.00;;
6785;SDS011;3430;51.192;6.048;2022-12-07T08:03:38;4.43;;;4.03;;
6785;SDS011;3430;51.192;6.048;2022-12-07T08:06:04;4.33;;;3.43;;
6785;SDS011;3430;51.192;6.048;2022-12-07T08:08:29;4.20;;;3.57;;
6785;SDS011;3430;51.192;6.048;2022-12-07T08:10:55;4.77;;;3.80;;
6785;SDS011;3430;51.192;6.048;2022-12-07T08:13:20;5.90;;;4.47;;
6785;SDS011;3430;51.192;6.048;2022-12-07T08:15:46;5.60;;;4.17;;
6785;SDS011;3430;51.192;6.048;2022-12-07T08:18:12;13.07;;;4.47;;
6785;SDS011;3430;51.192;6.048;2022-12-07T08:20:38;5.17;;;4.10;;
6785;SDS011;3430;51.192;6.048;2022-12-07T08:23:03;6.90;;;3.60;;
6785;SDS011;3430;51.192;6.048;2022-12-07T08:25:29;5.13;;;3.93;;
6785;SDS011;3430;51.192;6.048;2022-12-07T08:27:54;7.17;;;3.60;;
6785;SDS011;3430;51.192;6.048;2022-12-07T08:30:20;4.80;;;4.10;;
6785;SDS011;3430;51.192;6.048;2022-12-07T08:32:45;6.17;;;3.57;;
6785;SDS011;3430;51.192;6.048;2022-12-07T08:35:11;4.90;;;4.40;;
6785;SDS011;3430;51.192;6.048;2022-12-07T08:37:37;5.67;;;4.33;;
6785;SDS011;3430;51.192;6.048;2022-12-07T08:40:03;5.60;;;4.10;;
6785;SDS011;3430;51.192;6.048;2022-12-07T08:42:29;6.33;;;4.07;;
6785;SDS011;3430;51.192;6.048;2022-12-07T08:45:02;5.37;;;4.20;;
6785;SDS011;3430;51.192;6.048;2022-12-07T08:47:28;5.00;;;4.60;;
6785;SDS011;3430;51.192;6.048;2022-12-07T08:49:53;4.33;;;4.00;;
6785;SDS011;3430;51.192;6.048;2022-12-07T08:52:19;6.90;;;4.47;;
6785;SDS011;3430;51.192;6.048;2022-12-07T08:54:44;6.27;;;4.47;;
6785;SDS011;3430;51.192;6.048;2022-12-07T08:57:10;4.73;;;4.27;;
6785;SDS011;3430;51.192;6.048;2022-12-07T08:59:36;4.40;;;4.00;;
6785;SDS011;3430;51.192;6.048;2022-12-07T09:02:02;4.80;;;3.87;;
6785;SDS011;3430;51.192;6.048;2022-12-07T09:04:27;6.10;;;4.53;;
6785;SDS011;3430;51.192;6.048;2022-12-07T09:06:53;5.10;;;4.57;;
6785;SDS011;3430;51.192;6.048;2022-12-07T09:09:19;6.77;;;4.90;;
6785;SDS011;3430;51.192;6.048;2022-12-07T09:11:44;8.13;;;5.13;;
6785;SDS011;3430;51.192;6.048;2022-12-07T09:14:10;8.47;;;4.70;;
6785;SDS011;3430;51.192;6.048;2022-12-07T09:16:35;7.80;;;4.53;;
6785;SDS011;3430;51.192;6.048;2022-12-07T09:19:01;7.13;;;4.70;;
6785;SDS011;3430;51.192;6.048;2022-12-07T09:21:26;7.27;;;4.63;;
6785;SDS011;3430;51.192;6.048;2022-12-07T09:23:51;7.27;;;4.70;;
6785;SDS011;3430;51.192;6.048;2022-12-07T09:26:16;7.77;;;5.40;;
6785;SDS011;3430;51.192;6.048;2022-12-07T09:28:42;5.20;;;4.70;;
6785;SDS011;3430;51.192;6.048;2022-12-07T09:31:07;8.53;;;4.87;;
6785;SDS011;3430;51.192;6.048;2022-12-07T09:33:32;8.13;;;5.70;;
6785;SDS011;3430;51.192;6.048;2022-12-07T09:35:58;6.33;;;4.83;;
6785;SDS011;3430;51.192;6.048;2022-12-07T09:38:23;5.57;;;4.77;;
6785;SDS011;3430;51.192;6.048;2022-12-07T09:40:51;5.30;;;4.63;;
6785;SDS011;3430;51.192;6.048;2022-12-07T09:43:20;6.67;;;4.90;;
6785;SDS011;3430;51.192;6.048;2022-12-07T09:45:50;5.50;;;5.00;;
6785;SDS011;3430;51.192;6.048;2022-12-07T09:48:17;7.97;;;5.07;;
6785;SDS011;3430;51.192;6.048;2022-12-07T09:50:43;6.77;;;4.90;;
6785;SDS011;3430;51.192;6.048;2022-12-07T09:53:19;7.00;;;5.60;;
6785;SDS011;3430;51.192;6.048;2022-12-07T09:55:45;8.13;;;5.47;;
6785;SDS011;3430;51.192;6.048;2022-12-07T09:58:24;8.40;;;5.33;;
6785;SDS011;3430;51.192;6.048;2022-12-07T10:00:53;7.83;;;5.67;;
6785;SDS011;3430;51.192;6.048;2022-12-07T10:03:18;10.07;;;6.13;;
6785;SDS011;3430;51.192;6.048;2022-12-07T10:05:45;7.70;;;4.90;;
6785;SDS011;3430;51.192;6.048;2022-12-07T10:08:11;8.90;;;5.30;;
6785;SDS011;3430;51.192;6.048;2022-12-07T10:10:37;5.60;;;5.10;;
6785;SDS011;3430;51.192;6.048;2022-12-07T10:13:17;8.23;;;5.33;;
6785;SDS011;3430;51.192;6.048;2022-12-07T10:21:04;5.30;;;4.57;;
6785;SDS011;3430;51.192;6.048;2022-12-07T10:23:30;6.50;;;5.67;;
6785;SDS011;3430;51.192;6.048;2022-12-07T10:25:56;12.67;;;5.67;;
6785;SDS011;3430;51.192;6.048;2022-12-07T10:28:21;8.00;;;5.40;;
6785;SDS011;3430;51.192;6.048;2022-12-07T10:30:48;7.50;;;5.53;;
6785;SDS011;3430;51.192;6.048;2022-12-07T10:35:58;7.40;;;5.30;;
6785;SDS011;3430;51.192;6.048;2022-12-07T10:38:24;9.90;;;5.43;;
6785;SDS011;3430;51.192;6.048;2022-12-07T10:40:52;7.17;;;5.60;;
6785;SDS011;3430;51.192;6.048;2022-12-07T10:43:27;6.60;;;5.30;;
6785;SDS011;3430;51.192;6.048;2022-12-07T11:01:43;6.67;;;4.50;;
6785;SDS011;3430;51.192;6.048;2022-12-07T11:07:06;6.13;;;5.03;;
6785;SDS011;3430;51.192;6.048;2022-12-07T11:13:12;10.67;;;5.60;;
6785;SDS011;3430;51.192;6.048;2022-12-07T11:15:24;5.37;;;4.60;;
6785;SDS011;3430;51.192;6.048;2022-12-07T11:22:51;6.40;;;5.20;;
6785;SDS011;3430;51.192;6.048;2022-12-07T11:25:30;5.40;;;4.87;;
6785;SDS011;3430;51.192;6.048;2022-12-07T11:30:29;6.57;;;5.67;;
6785;SDS011;3430;51.192;6.048;2022-12-07T11:33:08;6.03;;;4.57;;
6785;SDS011;3430;51.192;6.048;2022-12-07T11:35:43;6.33;;;4.97;;
6785;SDS011;3430;51.192;6.048;2022-12-07T11:38:17;5.50;;;4.50;;
6785;SDS011;3430;51.192;6.048;2022-12-07T11:40:45;7.30;;;4.53;;
6785;SDS011;3430;51.192;6.048;2022-12-07T11:45:40;6.43;;;5.00;;
6785;SDS011;3430;51.192;6.048;2022-12-07T11:48:11;4.33;;;3.77;;
6785;SDS011;3430;51.192;6.048;2022-12-07T11:50:40;6.43;;;4.70;;
6785;SDS011;3430;51.192;6.048;2022-12-07T11:56:35;5.27;;;4.40;;
6785;SDS011;3430;51.192;6.048;2022-12-07T12:03:50;5.67;;;4.20;;
6785;SDS011;3430;51.192;6.048;2022-12-07T12:06:17;5.20;;;3.93;;
6785;SDS011;3430;51.192;6.048;2022-12-07T12:18:45;6.00;;;3.97;;
6785;SDS011;3430;51.192;6.048;2022-12-07T12:21:16;6.87;;;4.43;;
6785;SDS011;3430;51.192;6.048;2022-12-07T12:23:55;7.23;;;4.43;;
6785;SDS011;3430;51.192;6.048;2022-12-07T12:26:22;4.27;;;3.30;;
6785;SDS011;3430;51.192;6.048;2022-12-07T12:29:00;6.27;;;3.33;;
6785;SDS011;3430;51.192;6.048;2022-12-07T12:33:56;6.53;;;3.90;;
6785;SDS011;3430;51.192;6.048;2022-12-07T12:51:45;3.97;;;3.57;;
6785;SDS011;3430;51.192;6.048;2022-12-07T13:01:46;4.90;;;3.93;;
6785;SDS011;3430;51.192;6.048;2022-12-07T13:04:23;7.77;;;4.07;;
6785;SDS011;3430;51.192;6.048;2022-12-07T13:06:49;7.13;;;3.60;;
6785;SDS011;3430;51.192;6.048;2022-12-07T13:09:19;4.67;;;4.27;;
6785;SDS011;3430;51.192;6.048;2022-12-07T13:11:46;7.43;;;4.83;;
6785;SDS011;3430;51.192;6.048;2022-12-07T13:16:56;6.43;;;3.87;;
6785;SDS011;3430;51.192;6.048;2022-12-07T13:22:27;4.00;;;3.60;;
6785;SDS011;3430;51.192;6.048;2022-12-07T13:24:54;6.23;;;3.70;;
6785;SDS011;3430;51.192;6.048;2022-12-07T13:27:19;5.37;;;3.33;;
6785;SDS011;3430;51.192;6.048;2022-12-07T13:29:44;5.07;;;3.30;;
6785;SDS011;3430;51.192;6.048;2022-12-07T13:32:22;5.80;;;2.97;;
6785;SDS011;3430;51.192;6.048;2022-12-07T13:34:48;9.87;;;2.90;;
6785;SDS011;3430;51.192;6.048;2022-12-07T13:37:26;4.27;;;2.40;;
6785;SDS011;3430;51.192;6.048;2022-12-07T13:42:22;2.13;;;1.90;;
6785;SDS011;3430;51.192;6.048;2022-12-07T13:44:49;4.33;;;2.27;;
6785;SDS011;3430;51.192;6.048;2022-12-07T13:47:16;3.40;;;1.90;;
6785;SDS011;3430;51.192;6.048;2022-12-07T13:49:52;2.30;;;1.83;;
6785;SDS011;3430;51.192;6.048;2022-12-07T13:54:57;3.30;;;1.90;;
6785;SDS011;3430;51.192;6.048;2022-12-07T13:57:23;2.00;;;1.80;;
6785;SDS011;3430;51.192;6.048;2022-12-07T13:59:49;2.10;;;1.90;;
6785;SDS011;3430;51.192;6.048;2022-12-07T14:02:22;3.77;;;2.00;;
6785;SDS011;3430;51.192;6.048;2022-12-07T14:04:49;2.63;;;2.00;;
6785;SDS011;3430;51.192;6.048;2022-12-07T14:07:25;2.70;;;1.83;;
6785;SDS011;3430;51.192;6.048;2022-12-07T14:10:01;3.13;;;1.97;;
6785;SDS011;3430;51.192;6.048;2022-12-07T14:12:27;2.77;;;1.60;;
6785;SDS011;3430;51.192;6.048;2022-12-07T14:14:53;3.13;;;1.90;;
6785;SDS011;3430;51.192;6.048;2022-12-07T14:17:20;1.90;;;1.70;;
6785;SDS011;3430;51.192;6.048;2022-12-07T14:19:55;4.17;;;1.90;;
6785;SDS011;3430;51.192;6.048;2022-12-07T14:22:22;3.13;;;1.73;;
6785;SDS011;3430;51.192;6.048;2022-12-07T14:24:48;4.97;;;2.00;;
6785;SDS011;3430;51.192;6.048;2022-12-07T14:27:20;4.47;;;2.27;;
6785;SDS011;3430;51.192;6.048;2022-12-07T14:29:47;3.77;;;1.50;;
6785;SDS011;3430;51.192;6.048;2022-12-07T14:34:40;3.30;;;1.90;;
6785;SDS011;3430;51.192;6.048;2022-12-07T14:37:07;2.23;;;1.90;;
6785;SDS011;3430;51.192;6.048;2022-12-07T14:39:33;3.23;;;2.00;;
6785;SDS011;3430;51.192;6.048;2022-12-07T14:41:58;3.33;;;2.00;;
6785;SDS011;3430;51.192;6.048;2022-12-07T14:44:23;2.80;;;2.00;;
6785;SDS011;3430;51.192;6.048;2022-12-07T14:46:49;4.00;;;2.10;;
6785;SDS011;3430;51.192;6.048;2022-12-07T14:49:14;2.23;;;1.90;;
6785;SDS011;3430;51.192;6.048;2022-12-07T14:51:40;2.47;;;2.27;;
6785;SDS011;3430;51.192;6.048;2022-12-07T14:54:06;4.87;;;2.20;;
6785;SDS011;3430;51.192;6.048;2022-12-07T14:56:32;2.33;;;1.63;;
6785;SDS011;3430;51.192;6.048;2022-12-07T14:58:57;2.27;;;1.90;;
6785;SDS011;3430;51.192;6.048;2022-12-07T15:01:22;5.00;;;2.20;;
6785;SDS011;3430;51.192;6.048;2022-12-07T15:03:48;5.00;;;2.17;;
6785;SDS011;3430;51.192;6.048;2022-12-07T15:06:14;3.67;;;2.30;;
6785;SDS011;3430;51.192;6.048;2022-12-07T15:08:41;4.10;;;2.30;;
6785;SDS011;3430;51.192;6.048;2022-12-07T15:11:09;2.30;;;2.10;;
6785;SDS011;3430;51.192;6.048;2022-12-07T15:13:35;1.83;;;1.40;;
6785;SDS011;3430;51.192;6.048;2022-12-07T15:16:19;3.70;;;2.13;;
6785;SDS011;3430;51.192;6.048;2022-12-07T15:18:45;2.10;;;1.90;;
6785;SDS011;3430;51.192;6.048;2022-12-07T15:21:13;2.03;;;1.83;;
6785;SDS011;3430;51.192;6.048;2022-12-07T15:23:39;2.20;;;2.00;;
6785;SDS011;3430;51.192;6.048;2022-12-07T15:26:04;4.23;;;2.10;;
6785;SDS011;3430;51.192;6.048;2022-12-07T15:28:30;2.67;;;2.00;;
6785;SDS011;3430;51.192;6.048;2022-12-07T15:30:55;9.20;;;2.13;;
6785;SDS011;3430;51.192;6.048;2022-12-07T15:33:20;3.20;;;2.27;;
6785;SDS011;3430;51.192;6.048;2022-12-07T15:35:46;2.97;;;2.03;;
6785;SDS011;3430;51.192;6.048;2022-12-07T15:38:11;4.53;;;2.23;;
6785;SDS011;3430;51.192;6.048;2022-12-07T15:40:37;2.37;;;2.07;;
6785;SDS011;3430;51.192;6.048;2022-12-07T15:43:02;3.10;;;2.33;;
6785;SDS011;3430;51.192;6.048;2022-12-07T15:45:28;3.23;;;2.60;;
6785;SDS011;3430;51.192;6.048;2022-12-07T15:47:53;3.07;;;2.17;;
6785;SDS011;3430;51.192;6.048;2022-12-07T15:50:20;3.00;;;2.27;;
6785;SDS011;3430;51.192;6.048;2022-12-07T15:52:45;5.20;;;2.47;;
6785;SDS011;3430;51.192;6.048;2022-12-07T15:55:11;3.87;;;2.50;;
6785;SDS011;3430;51.192;6.048;2022-12-07T15:57:36;2.30;;;2.10;;
6785;SDS011;3430;51.192;6.048;2022-12-07T16:00:06;5.70;;;2.20;;
6785;SDS011;3430;51.192;6.048;2022-12-07T16:02:32;3.77;;;2.30;;
6785;SDS011;3430;51.192;6.048;2022-12-07T16:04:57;3.90;;;2.73;;
6785;SDS011;3430;51.192;6.048;2022-12-07T16:07:22;2.90;;;2.53;;
6785;SDS011;3430;51.192;6.048;2022-12-07T16:09:48;2.90;;;2.37;;
6785;SDS011;3430;51.192;6.048;2022-12-07T16:12:14;4.83;;;2.70;;
6785;SDS011;3430;51.192;6.048;2022-12-07T16:14:40;2.70;;;2.20;;
6785;SDS011;3430;51.192;6.048;2022-12-07T16:17:06;2.77;;;2.53;;
6785;SDS011;3430;51.192;6.048;2022-12-07T16:19:32;8.20;;;2.90;;
6785;SDS011;3430;51.192;6.048;2022-12-07T16:21:57;2.43;;;2.23;;
6785;SDS011;3430;51.192;6.048;2022-12-07T16:24:23;3.27;;;2.37;;
6785;SDS011;3430;51.192;6.048;2022-12-07T16:26:49;5.03;;;2.20;;
6785;SDS011;3430;51.192;6.048;2022-12-07T16:29:15;3.50;;;3.20;;
6785;SDS011;3430;51.192;6.048;2022-12-07T16:31:40;3.20;;;2.37;;
6785;SDS011;3430;51.192;6.048;2022-12-07T16:34:06;4.63;;;2.60;;
6785;SDS011;3430;51.192;6.048;2022-12-07T16:36:31;4.30;;;2.67;;
6785;SDS011;3430;51.192;6.048;2022-12-07T16:38:57;2.93;;;2.63;;
6785;SDS011;3430;51.192;6.048;2022-12-07T16:41:23;4.33;;;3.10;;
6785;SDS011;3430;51.192;6.048;2022-12-07T16:43:48;4.47;;;2.93;;
6785;SDS011;3430;51.192;6.048;2022-12-07T16:46:13;3.93;;;2.60;;
6785;SDS011;3430;51.192;6.048;2022-12-07T16:48:39;3.97;;;2.80;;
6785;SDS011;3430;51.192;6.048;2022-12-07T16:51:05;3.43;;;2.80;;
6785;SDS011;3430;51.192;6.048;2022-12-07T16:53:31;3.70;;;2.93;;
6785;SDS011;3430;51.192;6.048;2022-12-07T16:55:56;3.23;;;2.80;;
6785;SDS011;3430;51.192;6.048;2022-12-07T16:58:22;2.77;;;2.57;;
6785;SDS011;3430;51.192;6.048;2022-12-07T17:00:47;3.67;;;2.80;;
6785;SDS011;3430;51.192;6.048;2022-12-07T17:03:13;3.80;;;2.90;;
6785;SDS011;3430;51.192;6.048;2022-12-07T17:05:39;3.83;;;3.40;;
6785;SDS011;3430;51.192;6.048;2022-12-07T17:08:05;10.40;;;3.00;;
6785;SDS011;3430;51.192;6.048;2022-12-07T17:10:31;4.10;;;2.80;;
6785;SDS011;3430;51.192;6.048;2022-12-07T17:12:57;4.03;;;3.00;;
6785;SDS011;3430;51.192;6.048;2022-12-07T17:15:22;4.37;;;3.30;;
6785;SDS011;3430;51.192;6.048;2022-12-07T17:17:55;4.60;;;3.53;;
6785;SDS011;3430;51.192;6.048;2022-12-07T17:20:21;5.20;;;3.20;;
6785;SDS011;3430;51.192;6.048;2022-12-07T17:22:46;3.97;;;2.90;;
6785;SDS011;3430;51.192;6.048;2022-12-07T17:25:12;3.03;;;2.63;;
6785;SDS011;3430;51.192;6.048;2022-12-07T17:27:38;4.73;;;3.60;;